createdAt,value
2019-06-26T00:00:40.123Z,28.70
2019-06-26T00:03:09.502Z,28.47
2019-06-26T00:05:38.683Z,28.51
2019-06-26T00:08:07.077Z,28.10
2019-06-26T00:10:36.541Z,28.10
2019-06-26T00:13:06.221Z,28.29
2019-06-26T00:15:35.544Z,28.10
2019-06-26T00:18:06.391Z,28.06
2019-06-26T00:20:35.475Z,28.06
2019-06-26T00:23:05.068Z,27.96
2019-06-26T00:25:34.674Z,28.27
2019-06-26T00:28:02.893Z,28.20
2019-06-26T00:30:31.997Z,28.20
2019-06-26T00:33:01.157Z,28.25
2019-06-26T00:35:30.708Z,28.10
2019-06-26T00:37:59.172Z,27.88
2019-06-26T00:40:28.707Z,27.92
2019-06-26T00:42:57.354Z,27.82
2019-06-26T00:45:26.387Z,27.93
2019-06-26T00:47:55.575Z,27.85
2019-06-26T00:50:25.068Z,27.90
2019-06-26T00:52:53.962Z,27.90
2019-06-26T00:55:23.437Z,27.61
2019-06-26T00:57:52.740Z,27.68
2019-06-26T01:00:30.275Z,27.68
2019-06-26T01:02:59.548Z,27.38
2019-06-26T01:05:28.602Z,27.26
2019-06-26T01:07:58.142Z,27.45
2019-06-26T01:10:28.048Z,27.45
2019-06-26T01:12:57.548Z,27.65
2019-06-26T01:15:26.766Z,27.33
2019-06-26T01:17:55.762Z,27.38
2019-06-26T01:20:26.069Z,27.53
2019-06-26T01:22:55.287Z,27.29
2019-06-26T01:25:24.081Z,27.15
2019-06-26T01:27:54.061Z,27.47
2019-06-26T01:30:25.559Z,27.26
2019-06-26T01:32:54.537Z,26.93
2019-06-26T01:35:23.436Z,26.93
2019-06-26T01:37:52.447Z,26.83
2019-06-26T01:40:21.950Z,27.00
2019-06-26T01:42:51.461Z,27.06
2019-06-26T01:45:20.968Z,27.32
2019-06-26T01:47:50.790Z,27.32
2019-06-26T01:50:20.743Z,27.07
2019-06-26T01:52:48.937Z,27.05
2019-06-26T01:55:18.035Z,27.01
2019-06-26T01:57:48.726Z,26.80
2019-06-26T02:00:18.889Z,26.90
2019-06-26T02:02:48.050Z,26.90
2019-06-26T02:05:17.337Z,26.77
2019-06-26T02:07:46.474Z,26.72
2019-06-26T02:10:16.093Z,26.83
2019-06-26T02:12:45.089Z,26.70
2019-06-26T02:15:14.759Z,26.61
2019-06-26T02:17:43.876Z,26.67
2019-06-26T02:20:13.481Z,26.73
2019-06-26T02:22:42.812Z,26.68
2019-06-26T02:25:11.861Z,26.68
2019-06-26T02:27:41.094Z,26.56
2019-06-26T02:30:10.823Z,26.72
2019-06-26T02:32:40.496Z,26.80
2019-06-26T02:35:10.789Z,26.88
2019-06-26T02:37:39.950Z,27.01
2019-06-26T02:40:10.293Z,26.90
2019-06-26T02:42:39.928Z,26.92
2019-06-26T02:45:09.472Z,26.80
2019-06-26T02:50:29.245Z,26.56
2019-06-26T02:53:04.774Z,26.56
2019-06-26T02:55:33.042Z,26.63
2019-06-26T02:58:02.066Z,26.60
2019-06-26T03:00:31.390Z,26.48
2019-06-26T03:03:01.032Z,26.41
2019-06-26T03:05:29.970Z,26.35
2019-06-26T03:07:59.021Z,26.19
2019-06-26T03:10:27.949Z,26.17
2019-06-26T03:12:56.814Z,26.49
2019-06-26T03:15:25.762Z,26.34
2019-06-26T03:17:55.587Z,26.26
2019-06-26T03:20:32.402Z,26.15
2019-06-26T03:23:01.460Z,25.98
2019-06-26T03:25:30.693Z,25.98
2019-06-26T03:27:59.788Z,26.17
2019-06-26T03:30:28.012Z,26.17
2019-06-26T03:32:57.049Z,26.29
2019-06-26T03:35:26.566Z,26.36
2019-06-26T03:37:56.058Z,26.31
2019-06-26T03:40:25.015Z,26.10
2019-06-26T03:42:53.921Z,26.08
2019-06-26T03:45:26.203Z,26.10
2019-06-26T03:47:53.887Z,25.96
2019-06-26T03:50:23.120Z,26.25
2019-06-26T03:52:52.486Z,26.63
2019-06-26T03:55:21.608Z,26.72
2019-06-26T03:57:51.714Z,26.67
2019-06-26T04:00:35.934Z,26.67
2019-06-26T04:03:05.777Z,26.76
2019-06-26T04:05:35.337Z,26.81
2019-06-26T04:08:09.974Z,26.61
2019-06-26T04:10:38.946Z,26.81
2019-06-26T04:13:09.174Z,26.95
2019-06-26T04:15:42.463Z,27.40
2019-06-26T04:18:11.850Z,27.71
2019-06-26T04:20:41.285Z,27.77
2019-06-26T04:23:10.893Z,27.55
2019-06-26T04:25:40.146Z,27.52
2019-06-26T04:28:09.567Z,27.38
2019-06-26T04:30:38.606Z,27.32
2019-06-26T04:33:07.604Z,27.71
2019-06-26T04:35:36.787Z,28.11
2019-06-26T04:38:06.642Z,28.11
2019-06-26T04:40:35.907Z,29.57
2019-06-26T04:43:05.223Z,29.57
2019-06-26T04:45:34.461Z,30.87
2019-06-26T04:48:06.830Z,32.09
2019-06-26T04:50:34.252Z,32.35
2019-06-26T04:53:03.458Z,32.62
2019-06-26T04:55:32.637Z,32.89
2019-06-26T04:58:04.460Z,33.04
2019-06-26T05:00:35.640Z,32.89
2019-06-26T05:03:04.640Z,35.05
2019-06-26T05:05:39.533Z,35.25
2019-06-26T05:08:04.506Z,35.25
2019-06-26T05:10:33.959Z,35.96
2019-06-26T05:13:03.838Z,35.96
2019-06-26T05:15:33.314Z,36.89
2019-06-26T05:18:02.769Z,37.56
2019-06-26T05:20:31.453Z,37.50
2019-06-26T05:23:00.571Z,37.84
2019-06-26T05:25:29.758Z,38.35
2019-06-26T05:27:59.235Z,38.35
2019-06-26T05:30:30.781Z,38.59
2019-06-26T05:33:19.740Z,39.02
2019-06-26T05:35:51.018Z,39.17
2019-06-26T05:38:20.671Z,39.61
2019-06-26T05:40:50.691Z,39.64
2019-06-26T05:43:20.552Z,40.51
2019-06-26T05:45:50.327Z,41.16
2019-06-26T05:48:20.348Z,41.36
2019-06-26T05:50:53.417Z,42.80
2019-06-26T05:53:23.295Z,44.11
2019-06-26T05:55:52.806Z,44.11
2019-06-26T05:58:24.722Z,43.91
2019-06-26T06:00:54.299Z,41.96
2019-06-26T06:03:23.614Z,42.18
2019-06-26T06:05:53.530Z,42.55
2019-06-26T06:08:23.312Z,42.55
2019-06-26T06:10:53.613Z,42.83
2019-06-26T06:13:22.470Z,42.73
2019-06-26T06:15:52.594Z,42.87
2019-06-26T06:18:21.837Z,41.98
2019-06-26T06:20:51.774Z,41.98
2019-06-26T06:23:22.844Z,43.77
2019-06-26T06:25:52.816Z,44.81
2019-06-26T06:28:22.563Z,44.08
2019-06-26T06:30:52.304Z,44.89
2019-06-26T06:33:23.308Z,45.02
2019-06-26T06:35:53.548Z,46.88
2019-06-26T06:38:22.515Z,46.03
2019-06-26T06:40:52.309Z,46.03
2019-06-26T06:43:21.955Z,46.03
2019-06-26T06:45:52.046Z,44.27
2019-06-26T06:48:22.588Z,44.77
2019-06-26T06:50:51.865Z,44.58
2019-06-26T06:53:21.790Z,45.73
2019-06-26T06:55:51.774Z,47.89
2019-06-26T06:58:21.303Z,49.10
2019-06-26T07:00:51.544Z,49.02
2019-06-26T07:03:21.247Z,50.27
2019-06-26T07:05:50.558Z,48.04
2019-06-26T07:08:20.832Z,49.63
2019-06-26T07:10:50.847Z,49.63
2019-06-26T07:13:23.458Z,50.67
2019-06-26T07:15:52.972Z,50.57
2019-06-26T07:18:22.958Z,50.57
2019-06-26T07:20:52.906Z,49.31
2019-06-26T07:23:22.899Z,50.01
2019-06-26T07:25:52.669Z,50.40
2019-06-26T07:28:22.367Z,50.48
2019-06-26T07:30:52.030Z,50.48
2019-06-26T07:33:21.537Z,48.95
2019-06-26T07:35:50.494Z,49.20
2019-06-26T07:38:19.053Z,49.20
2019-06-26T07:40:48.293Z,50.50
2019-06-26T07:43:18.726Z,50.50
2019-06-26T07:45:51.489Z,52.99
2019-06-26T07:48:20.581Z,54.12
2019-06-26T07:50:50.439Z,54.12
2019-06-26T07:53:20.296Z,54.81
2019-06-26T07:55:49.713Z,51.33
2019-06-26T07:58:23.032Z,52.50
2019-06-26T08:00:52.135Z,53.85
2019-06-26T08:03:21.572Z,53.36
2019-06-26T08:05:50.453Z,54.90
2019-06-26T08:08:19.879Z,54.90
2019-06-26T08:10:49.296Z,53.14
2019-06-26T08:13:18.789Z,54.25
2019-06-26T08:15:48.506Z,56.26
2019-06-26T08:18:17.889Z,56.92
2019-06-26T08:20:55.351Z,56.92
2019-06-26T08:23:18.143Z,57.59
2019-06-26T08:25:47.509Z,57.67
2019-06-26T08:28:16.899Z,56.40
2019-06-26T08:30:45.983Z,57.34
2019-06-26T08:33:15.287Z,57.86
2019-06-26T08:35:44.807Z,58.00
2019-06-26T08:38:15.810Z,57.48
2019-06-26T08:40:45.294Z,57.83
2019-06-26T08:43:15.322Z,58.91
2019-06-26T08:45:44.652Z,59.21
2019-06-26T08:48:28.144Z,58.55
2019-06-26T08:50:45.125Z,59.26
2019-06-26T08:53:15.975Z,60.36
2019-06-26T08:55:48.735Z,59.71
2019-06-26T08:58:21.381Z,59.05
2019-06-26T09:00:52.975Z,58.05
2019-06-26T09:03:23.020Z,58.05
2019-06-26T09:05:53.783Z,58.68
2019-06-26T09:08:23.647Z,58.05
2019-06-26T09:11:07.728Z,57.56
2019-06-26T09:13:36.057Z,57.94
2019-06-26T09:16:05.545Z,58.72
2019-06-26T09:18:36.247Z,58.94
2019-06-26T09:21:06.306Z,59.08
2019-06-26T09:23:35.475Z,58.92
2019-06-26T09:26:04.598Z,59.39
2019-06-26T09:28:33.273Z,60.61
2019-06-26T09:31:02.119Z,61.60
2019-06-26T09:33:32.400Z,60.39
2019-06-26T09:36:01.585Z,60.18
2019-06-26T09:38:30.870Z,60.64
2019-06-26T09:40:59.951Z,60.48
2019-06-26T09:43:30.101Z,60.07
2019-06-26T09:45:59.599Z,60.41
2019-06-26T09:48:28.058Z,58.45
2019-06-26T09:50:57.327Z,58.45
2019-06-26T09:53:26.559Z,58.27
2019-06-26T09:55:55.594Z,58.63
2019-06-26T09:58:23.715Z,58.52
2019-06-26T10:00:53.754Z,58.69
2019-06-26T10:03:23.141Z,60.29
2019-06-26T10:05:52.556Z,59.74
2019-06-26T10:08:21.000Z,61.83
2019-06-26T10:10:50.154Z,61.83
2019-06-26T10:13:19.408Z,59.79
2019-06-26T10:15:48.769Z,61.01
2019-06-26T10:18:17.953Z,59.91
2019-06-26T10:20:46.933Z,59.23
2019-06-26T10:23:15.963Z,59.94
2019-06-26T10:25:45.629Z,59.98
2019-06-26T10:28:14.841Z,60.17
2019-06-26T10:30:44.049Z,59.98
2019-06-26T10:33:13.144Z,60.51
2019-06-26T10:35:45.158Z,60.81
2019-06-26T10:38:14.127Z,61.20
2019-06-26T10:40:43.807Z,61.82
2019-06-26T10:43:15.624Z,61.69
2019-06-26T10:45:43.946Z,61.29
2019-06-26T10:48:13.068Z,61.29
2019-06-26T10:50:49.346Z,60.80
2019-06-26T10:53:13.427Z,60.49
2019-06-26T10:55:42.439Z,61.61
2019-06-26T10:58:13.157Z,61.73
2019-06-26T11:00:44.106Z,61.34
2019-06-26T11:03:13.307Z,59.79
2019-06-26T11:05:43.405Z,57.53
2019-06-26T11:08:13.029Z,55.82
2019-06-26T11:10:46.586Z,55.85
2019-06-26T11:13:16.013Z,55.89
2019-06-26T11:15:48.652Z,53.55
2019-06-26T11:18:17.580Z,55.98
2019-06-26T11:20:46.049Z,57.93
2019-06-26T11:23:15.099Z,57.93
2019-06-26T11:25:44.635Z,58.10
2019-06-26T11:28:14.589Z,59.11
2019-06-26T11:30:44.100Z,60.16
2019-06-26T11:33:13.050Z,60.16
2019-06-26T11:35:42.501Z,59.06
2019-06-26T11:38:13.988Z,59.69
2019-06-26T11:40:43.125Z,59.69
2019-06-26T11:43:11.955Z,60.12
2019-06-26T11:45:43.192Z,59.69
2019-06-26T11:48:12.507Z,60.23
2019-06-26T11:50:41.610Z,56.56
2019-06-26T11:53:11.017Z,58.07
2019-06-26T11:55:40.399Z,59.08
2019-06-26T11:58:09.766Z,59.60
2019-06-26T12:00:41.599Z,58.72
2019-06-26T12:03:13.109Z,56.78
2019-06-26T12:05:40.928Z,56.27
2019-06-26T12:08:09.928Z,55.84
2019-06-26T12:10:39.021Z,55.81
2019-06-26T12:13:08.742Z,55.44
2019-06-26T12:15:37.836Z,56.08
2019-06-26T12:18:07.890Z,55.14
2019-06-26T12:20:37.114Z,53.56
2019-06-26T12:23:06.424Z,51.67
2019-06-26T12:25:35.759Z,52.41
2019-06-26T12:28:07.573Z,50.49
2019-06-26T12:30:39.737Z,51.77
2019-06-26T12:33:13.092Z,52.42
2019-06-26T12:35:43.969Z,52.85
2019-06-26T12:38:13.120Z,52.60
2019-06-26T12:40:42.098Z,52.69
2019-06-26T12:43:11.308Z,53.29
2019-06-26T12:45:40.424Z,52.89
2019-06-26T12:48:09.913Z,53.94
2019-06-26T12:50:39.160Z,54.13
2019-06-26T12:53:08.596Z,53.98
2019-06-26T12:55:36.966Z,53.40
2019-06-26T12:58:13.138Z,53.19
2019-06-26T13:00:37.838Z,53.00
2019-06-26T13:03:06.928Z,52.42
2019-06-26T13:05:35.941Z,52.45
2019-06-26T13:08:04.985Z,52.06
2019-06-26T13:10:48.463Z,51.15
2019-06-26T13:13:04.738Z,51.45
2019-06-26T13:15:33.031Z,50.30
2019-06-26T13:18:02.515Z,49.17
2019-06-26T13:20:32.248Z,49.77
2019-06-26T13:23:01.391Z,46.82
2019-06-26T13:25:31.056Z,46.82
2019-06-26T13:28:02.324Z,48.66
2019-06-26T13:30:38.373Z,49.26
2019-06-26T13:33:08.874Z,47.62
2019-06-26T13:35:38.543Z,46.92
2019-06-26T13:38:07.380Z,47.35
2019-06-26T13:40:42.739Z,47.35
2019-06-26T13:43:12.006Z,47.45
2019-06-26T13:45:49.863Z,46.16
2019-06-26T13:48:20.558Z,45.57
2019-06-26T13:50:50.671Z,46.35
2019-06-26T13:53:20.426Z,46.99
2019-06-26T13:55:50.184Z,47.12
2019-06-26T13:58:19.679Z,47.38
2019-06-26T14:00:48.877Z,46.40
2019-06-26T14:03:18.956Z,46.09
2019-06-26T14:05:48.578Z,46.36
2019-06-26T14:08:18.156Z,45.56
2019-06-26T14:10:48.177Z,45.56
2019-06-26T14:13:17.528Z,44.68
2019-06-26T14:15:46.005Z,44.72
2019-06-26T14:18:15.701Z,45.02
2019-06-26T14:20:45.536Z,45.50
2019-06-26T14:23:15.557Z,45.71
2019-06-26T14:25:49.954Z,45.80
2019-06-26T14:28:20.316Z,45.80
2019-06-26T14:30:49.993Z,45.75
2019-06-26T14:33:19.993Z,45.85
2019-06-26T14:35:49.661Z,45.22
2019-06-26T14:38:19.155Z,45.96
2019-06-26T14:40:48.809Z,45.56
2019-06-26T14:43:18.178Z,45.10
2019-06-26T14:45:47.982Z,45.03
2019-06-26T14:48:17.784Z,45.30
2019-06-26T14:50:47.849Z,45.15
2019-06-26T14:53:17.133Z,44.73
2019-06-26T14:55:46.729Z,44.77
2019-06-26T14:58:15.490Z,45.09
2019-06-26T15:00:44.613Z,44.07
2019-06-26T15:03:13.025Z,44.07
2019-06-26T15:05:45.492Z,44.38
2019-06-26T15:08:14.612Z,44.78
2019-06-26T15:10:44.306Z,44.24
2019-06-26T15:13:13.563Z,44.24
2019-06-26T15:15:43.132Z,44.13
2019-06-26T15:18:12.424Z,42.77
2019-06-26T15:20:41.995Z,42.00
2019-06-26T15:23:11.554Z,42.25
2019-06-26T15:25:40.117Z,42.83
2019-06-26T15:28:10.556Z,42.16
2019-06-26T15:30:40.062Z,42.70
2019-06-26T15:33:09.822Z,43.17
2019-06-26T15:35:39.305Z,43.13
2019-06-26T15:55:45.773Z,42.45
2019-06-26T15:58:14.970Z,42.67
2019-06-26T16:00:45.959Z,42.44
2019-06-26T16:03:15.084Z,42.07
2019-06-26T16:05:43.943Z,42.26
2019-06-26T16:08:13.594Z,42.37
2019-06-26T16:10:42.875Z,42.33
2019-06-26T16:13:12.004Z,42.33
2019-06-26T16:15:41.607Z,42.73
2019-06-26T16:18:22.955Z,42.65
2019-06-26T16:20:52.108Z,42.65
2019-06-26T16:23:20.954Z,42.02
2019-06-26T16:25:50.079Z,40.91
2019-06-26T16:28:18.961Z,42.10
2019-06-26T16:30:47.944Z,41.88
2019-06-26T16:33:17.420Z,41.70
2019-06-26T16:35:46.551Z,42.57
2019-06-26T16:38:16.070Z,42.66
2019-06-26T16:40:45.108Z,42.79
2019-06-26T16:43:14.130Z,42.97
2019-06-26T16:45:43.404Z,41.14
2019-06-26T16:48:12.602Z,40.99
2019-06-26T16:50:41.972Z,40.16
2019-06-26T16:53:11.503Z,40.16
2019-06-26T16:55:40.580Z,40.93
2019-06-26T16:58:08.949Z,42.29
2019-06-26T17:00:38.034Z,42.29
2019-06-26T17:03:07.337Z,41.57
2019-06-26T17:05:36.443Z,40.98
2019-06-26T17:08:05.477Z,41.19
2019-06-26T17:10:34.444Z,41.18
2019-06-26T17:13:03.441Z,40.97
2019-06-26T17:15:32.601Z,41.20
2019-06-26T17:18:01.006Z,41.95
2019-06-26T17:20:30.084Z,41.95
2019-06-26T17:23:05.583Z,41.95
2019-06-26T17:25:30.472Z,42.01
2019-06-26T17:27:59.430Z,41.71
2019-06-26T17:30:28.467Z,41.81
2019-06-26T17:32:57.769Z,42.20
2019-06-26T17:35:25.883Z,42.50
2019-06-26T17:37:54.851Z,42.57
2019-06-26T17:40:24.455Z,42.30
2019-06-26T17:42:53.509Z,42.18
2019-06-26T17:45:22.577Z,42.02
2019-06-26T17:47:51.633Z,42.13
2019-06-26T17:50:20.761Z,42.13
2019-06-26T17:52:49.744Z,42.13
2019-06-26T17:55:18.980Z,41.84
2019-06-26T17:57:48.006Z,41.89
2019-06-26T18:00:23.513Z,41.91
2019-06-26T18:02:52.637Z,41.59
2019-06-26T18:05:21.735Z,41.27
2019-06-26T18:07:49.911Z,41.27
2019-06-26T18:10:18.774Z,41.24
2019-06-26T18:12:48.818Z,41.31
2019-06-26T18:15:17.808Z,41.08
2019-06-26T18:17:46.709Z,40.80
2019-06-26T18:20:17.412Z,40.23
2019-06-26T18:22:46.470Z,40.23
2019-06-26T18:25:16.689Z,39.85
2019-06-26T18:27:45.995Z,39.58
2019-06-26T18:30:15.931Z,39.55
2019-06-26T18:32:45.052Z,39.38
2019-06-26T18:35:14.962Z,39.12
2019-06-26T18:37:44.096Z,39.08
2019-06-26T18:40:14.426Z,38.35
2019-06-26T18:42:44.814Z,38.55
2019-06-26T18:45:14.895Z,38.42
2019-06-26T18:47:44.435Z,38.11
2019-06-26T18:50:13.621Z,38.20
2019-06-26T18:52:42.637Z,38.08
2019-06-26T18:55:11.673Z,38.08
2019-06-26T18:57:40.907Z,37.77
2019-06-26T19:00:10.635Z,37.91
2019-06-26T19:02:39.675Z,37.75
2019-06-26T19:05:09.075Z,37.75
2019-06-26T19:07:38.438Z,37.60
2019-06-26T19:10:08.580Z,37.59
2019-06-26T19:12:37.640Z,37.23
2019-06-26T19:15:08.446Z,37.02
2019-06-26T19:17:37.884Z,37.02
2019-06-26T19:20:07.764Z,37.01
2019-06-26T19:22:36.716Z,36.45
2019-06-26T19:25:05.822Z,36.42
2019-06-26T19:27:34.934Z,36.28
2019-06-26T19:30:05.309Z,36.31
2019-06-26T19:32:37.321Z,36.29
2019-06-26T19:35:18.205Z,36.22
2019-06-26T19:37:36.050Z,36.30
2019-06-26T19:40:08.586Z,36.37
2019-06-26T19:42:37.447Z,35.83
2019-06-26T19:45:09.108Z,35.79
2019-06-26T19:47:37.823Z,35.44
2019-06-26T19:50:07.696Z,35.59
2019-06-26T19:52:38.654Z,35.46
2019-06-26T19:55:07.477Z,35.20
2019-06-26T19:57:36.530Z,35.20
2019-06-26T20:00:06.526Z,34.89
2019-06-26T20:02:35.442Z,34.93
2019-06-26T20:05:05.590Z,34.83
2019-06-26T20:07:34.508Z,34.69
2019-06-26T20:10:04.108Z,34.75
2019-06-26T20:12:33.025Z,34.69
2019-06-26T20:15:02.886Z,34.78
2019-06-26T20:17:32.037Z,34.38
2019-06-26T20:20:01.111Z,34.22
2019-06-26T20:22:30.446Z,34.21
2019-06-26T20:24:59.565Z,34.23
2019-06-26T20:27:27.867Z,33.91
2019-06-26T20:29:56.943Z,33.91
2019-06-26T20:32:26.160Z,33.83
2019-06-26T20:34:55.408Z,33.75
2019-06-26T20:37:24.744Z,33.86
2019-06-26T20:39:53.809Z,33.80
2019-06-26T20:42:22.774Z,33.70
2019-06-26T20:44:51.685Z,33.63
2019-06-26T20:47:21.967Z,33.68
2019-06-26T20:49:53.439Z,33.19
2019-06-26T20:52:25.482Z,33.23
2019-06-26T20:55:59.834Z,33.38
2019-06-26T20:58:28.917Z,33.33
2019-06-26T21:00:59.129Z,33.32
2019-06-26T21:03:28.117Z,33.22
2019-06-26T21:05:57.477Z,32.94
2019-06-26T21:08:29.431Z,33.04
2019-06-26T21:10:57.719Z,33.04
2019-06-26T21:13:26.918Z,32.87
2019-06-26T21:15:55.958Z,32.75
2019-06-26T21:18:24.988Z,32.76
2019-06-26T21:20:54.188Z,32.85
2019-06-26T21:23:23.663Z,32.72
2019-06-26T21:25:52.943Z,32.87
2019-06-26T21:28:21.738Z,32.67
2019-06-26T21:30:50.013Z,32.70
2019-06-26T21:33:19.013Z,32.61
2019-06-26T21:35:47.847Z,32.51
2019-06-26T21:38:16.789Z,32.55
2019-06-26T21:40:45.889Z,32.27
2019-06-26T21:43:15.116Z,32.15
2019-06-26T21:45:44.120Z,31.99
2019-06-26T21:48:13.305Z,32.30
2019-06-26T21:50:41.951Z,32.23
2019-06-26T21:53:10.988Z,32.12
2019-06-26T21:55:42.030Z,31.83
2019-06-26T21:58:29.916Z,31.90
2019-06-26T22:01:17.850Z,31.89
2019-06-26T22:04:07.310Z,31.89
2019-06-26T22:06:38.597Z,31.91
2019-06-26T22:09:27.828Z,31.70
2019-06-26T22:12:00.575Z,32.01
2019-06-26T22:14:27.854Z,31.96
2019-06-26T22:16:56.896Z,32.16
2019-06-26T22:19:26.130Z,32.10
2019-06-26T22:21:54.940Z,31.96
2019-06-26T22:24:24.043Z,31.83
2019-06-26T22:26:54.317Z,31.68
2019-06-26T22:29:25.941Z,31.50
2019-06-26T22:31:56.812Z,31.46
2019-06-26T22:34:27.012Z,31.31
2019-06-26T22:36:55.956Z,31.59
2019-06-26T22:39:24.991Z,31.56
2019-06-26T22:41:53.980Z,31.53
2019-06-26T22:44:23.172Z,31.40
2019-06-26T22:46:52.187Z,31.25
2019-06-26T22:49:21.744Z,31.27
2019-06-26T22:51:50.820Z,31.24
2019-06-26T22:54:20.084Z,31.15
2019-06-26T22:56:49.628Z,31.07
2019-06-26T22:59:18.732Z,31.12
2019-06-26T23:02:00.763Z,31.10
2019-06-26T23:04:30.131Z,31.16
2019-06-26T23:06:58.995Z,31.27
2019-06-26T23:09:28.142Z,31.24
2019-06-26T23:11:57.041Z,31.12
2019-06-26T23:14:26.067Z,31.18
2019-06-26T23:16:54.962Z,31.28
2019-06-26T23:19:24.615Z,30.99
2019-06-26T23:21:53.364Z,30.91
2019-06-26T23:24:22.484Z,30.68
2019-06-26T23:26:51.717Z,30.57
2019-06-26T23:29:19.879Z,30.52
2019-06-26T23:31:48.971Z,30.35
2019-06-26T23:34:18.142Z,30.54
2019-06-26T23:36:46.991Z,30.55
2019-06-26T23:39:16.496Z,30.54
2019-06-26T23:41:45.619Z,30.62
2019-06-26T23:44:14.790Z,30.60
2019-06-26T23:46:43.825Z,30.60
2019-06-26T23:49:12.885Z,30.32
2019-06-26T23:51:41.614Z,30.34
2019-06-26T23:54:10.561Z,30.36
2019-06-26T23:56:40.925Z,30.36
2019-06-26T23:59:10.484Z,29.89
